메인 페이지
METAR-TAF:

METAR-TAF

공항 :

Tri-County Regional Airport

Lone Rock, 위스콘신, 미국

위도: 43-12-43N, 경도: 090-10-53W, 고도: 219m

현재 날씨관측

예보는 13분 전, 14:04시(UTC)에 발표되었습니다.
남동9kt
온도 12°C
습도 100%
기압 1007 hPa
시정: 2.8km
고도 600ft 상공 흐림
박무

METAR: KLNR 071404Z AUTO 13009KT 1 3/4SM BR OVC006 12/12 A2974 RMK AO2 CIG 003V008 T01170117

시각: 09:17 (14:17 UTC)


TAF: 누락

4,000개 이상의 공항 관측 자료 및 예보 (METAR 및 TAF 보고).

지도상에서 검색 가능한 기상관측소가 노란 점과 빨간 점으로 표시되어 있습니다.

기상관측소 명을 보려면 표시 위로 마우스를 이동하세요.

날씨 관측과 예보를 보려면 클릭하세요.

지도 변경 : 확대하려면 엑스 표시가 있는 녹색 버튼, 축소하려면 빼기 표시가 있는 녹색 버튼, 다음 페이지의 지도를 보려면 녹색 화살표를 클릭하세요.


METAR-TAF: